sensor_id;sensor_type;location;lat;lon;timestamp;P1;durP1;ratioP1;P2;durP2;ratioP2
18162;SDS011;9206;50.994;4.538;2023-05-07T00:01:04;7.03;;;5.47;;
18162;SDS011;9206;50.994;4.538;2023-05-07T00:07:06;8.53;;;5.37;;
18162;SDS011;9206;50.994;4.538;2023-05-07T00:09:36;7.20;;;6.57;;
18162;SDS011;9206;50.994;4.538;2023-05-07T00:28:09;6.73;;;6.23;;
18162;SDS011;9206;50.994;4.538;2023-05-07T00:30:38;6.90;;;6.23;;
18162;SDS011;9206;50.994;4.538;2023-05-07T00:33:13;8.27;;;7.53;;
18162;SDS011;9206;50.994;4.538;2023-05-07T00:35:50;8.98;;;8.23;;
18162;SDS011;9206;50.994;4.538;2023-05-07T00:44:05;14.03;;;10.40;;
18162;SDS011;9206;50.994;4.538;2023-05-07T00:46:38;12.10;;;9.90;;
18162;SDS011;9206;50.994;4.538;2023-05-07T00:49:30;10.50;;;9.13;;
18162;SDS011;9206;50.994;4.538;2023-05-07T00:59:11;9.60;;;8.60;;
18162;SDS011;9206;50.994;4.538;2023-05-07T01:05:31;10.37;;;7.87;;
18162;SDS011;9206;50.994;4.538;2023-05-07T01:11:20;7.50;;;6.80;;
18162;SDS011;9206;50.994;4.538;2023-05-07T01:25:06;7.27;;;6.67;;
18162;SDS011;9206;50.994;4.538;2023-05-07T01:28:29;8.13;;;6.00;;
18162;SDS011;9206;50.994;4.538;2023-05-07T01:31:37;6.67;;;6.00;;
18162;SDS011;9206;50.994;4.538;2023-05-07T01:34:18;5.83;;;5.33;;
18162;SDS011;9206;50.994;4.538;2023-05-07T01:43:48;6.60;;;6.00;;
18162;SDS011;9206;50.994;4.538;2023-05-07T02:14:44;10.23;;;6.00;;
18162;SDS011;9206;50.994;4.538;2023-05-07T02:18:38;9.13;;;6.93;;
18162;SDS011;9206;50.994;4.538;2023-05-07T02:31:08;7.93;;;7.13;;
18162;SDS011;9206;50.994;4.538;2023-05-07T02:34:30;9.67;;;7.57;;
18162;SDS011;9206;50.994;4.538;2023-05-07T02:37:06;7.50;;;6.80;;
18162;SDS011;9206;50.994;4.538;2023-05-07T02:42:33;7.20;;;6.80;;
18162;SDS011;9206;50.994;4.538;2023-05-07T03:04:32;7.50;;;6.20;;
18162;SDS011;9206;50.994;4.538;2023-05-07T03:07:09;7.30;;;6.60;;
18162;SDS011;9206;50.994;4.538;2023-05-07T03:51:27;8.17;;;7.47;;
18162;SDS011;9206;50.994;4.538;2023-05-07T07:27:42;9.05;;;7.28;;
18162;SDS011;9206;50.994;4.538;2023-05-07T07:30:16;9.07;;;7.68;;
18162;SDS011;9206;50.994;4.538;2023-05-07T07:32:44;10.05;;;7.93;;
18162;SDS011;9206;50.994;4.538;2023-05-07T07:35:41;13.05;;;7.90;;
18162;SDS011;9206;50.994;4.538;2023-05-07T07:38:24;6.93;;;6.22;;
18162;SDS011;9206;50.994;4.538;2023-05-07T07:40:54;6.65;;;5.97;;
18162;SDS011;9206;50.994;4.538;2023-05-07T07:46:03;9.40;;;6.20;;
18162;SDS011;9206;50.994;4.538;2023-05-07T07:49:08;6.10;;;5.30;;
18162;SDS011;9206;50.994;4.538;2023-05-07T07:51:52;7.82;;;5.75;;
18162;SDS011;9206;50.994;4.538;2023-05-07T07:54:26;7.68;;;5.25;;
18162;SDS011;9206;50.994;4.538;2023-05-07T07:59:26;7.57;;;4.95;;
18162;SDS011;9206;50.994;4.538;2023-05-07T08:02:02;7.43;;;5.70;;
18162;SDS011;9206;50.994;4.538;2023-05-07T08:07:08;7.53;;;5.65;;
18162;SDS011;9206;50.994;4.538;2023-05-07T08:09:41;5.35;;;4.75;;
18162;SDS011;9206;50.994;4.538;2023-05-07T08:12:14;7.68;;;5.82;;
18162;SDS011;9206;50.994;4.538;2023-05-07T08:14:49;5.57;;;5.07;;
18162;SDS011;9206;50.994;4.538;2023-05-07T08:17:28;7.78;;;5.78;;
18162;SDS011;9206;50.994;4.538;2023-05-07T08:19:55;8.57;;;6.05;;
18162;SDS011;9206;50.994;4.538;2023-05-07T08:22:38;7.85;;;5.38;;
18162;SDS011;9206;50.994;4.538;2023-05-07T08:27:37;10.50;;;5.28;;
18162;SDS011;9206;50.994;4.538;2023-05-07T08:30:06;9.90;;;5.75;;
18162;SDS011;9206;50.994;4.538;2023-05-07T08:32:37;8.73;;;5.85;;
18162;SDS011;9206;50.994;4.538;2023-05-07T08:35:12;5.55;;;5.05;;
18162;SDS011;9206;50.994;4.538;2023-05-07T08:37:52;8.27;;;5.65;;
18162;SDS011;9206;50.994;4.538;2023-05-07T08:40:39;8.95;;;6.05;;
18162;SDS011;9206;50.994;4.538;2023-05-07T08:43:13;6.22;;;5.32;;
18162;SDS011;9206;50.994;4.538;2023-05-07T08:45:47;7.88;;;6.07;;
18162;SDS011;9206;50.994;4.538;2023-05-07T08:48:19;8.73;;;6.05;;
18162;SDS011;9206;50.994;4.538;2023-05-07T08:51:03;7.00;;;6.30;;
18162;SDS011;9206;50.994;4.538;2023-05-07T08:53:33;10.77;;;6.13;;
18162;SDS011;9206;50.994;4.538;2023-05-07T08:56:00;8.35;;;5.85;;
18162;SDS011;9206;50.994;4.538;2023-05-07T08:58:34;9.45;;;6.00;;
18162;SDS011;9206;50.994;4.538;2023-05-07T09:01:15;6.07;;;5.55;;
18162;SDS011;9206;50.994;4.538;2023-05-07T09:03:44;6.97;;;5.85;;
18162;SDS011;9206;50.994;4.538;2023-05-07T09:06:15;6.55;;;5.93;;
18162;SDS011;9206;50.994;4.538;2023-05-07T09:08:44;6.15;;;5.57;;
18162;SDS011;9206;50.994;4.538;2023-05-07T09:11:20;10.18;;;6.30;;
18162;SDS011;9206;50.994;4.538;2023-05-07T09:13:54;6.95;;;5.25;;
18162;SDS011;9206;50.994;4.538;2023-05-07T09:16:25;7.70;;;5.32;;
18162;SDS011;9206;50.994;4.538;2023-05-07T09:18:53;6.43;;;5.30;;
18162;SDS011;9206;50.994;4.538;2023-05-07T09:21:21;7.18;;;5.47;;
18162;SDS011;9206;50.994;4.538;2023-05-07T09:23:52;8.95;;;5.63;;
18162;SDS011;9206;50.994;4.538;2023-05-07T09:26:33;6.25;;;5.10;;
18162;SDS011;9206;50.994;4.538;2023-05-07T09:29:22;7.78;;;5.78;;
18162;SDS011;9206;50.994;4.538;2023-05-07T09:32:11;7.70;;;5.95;;
18162;SDS011;9206;50.994;4.538;2023-05-07T09:34:59;5.60;;;4.82;;
18162;SDS011;9206;50.994;4.538;2023-05-07T09:37:47;9.50;;;6.20;;
18162;SDS011;9206;50.994;4.538;2023-05-07T09:40:37;9.82;;;5.75;;
18162;SDS011;9206;50.994;4.538;2023-05-07T09:43:26;6.13;;;5.47;;
18162;SDS011;9206;50.994;4.538;2023-05-07T09:46:19;7.40;;;5.85;;
18162;SDS011;9206;50.994;4.538;2023-05-07T09:49:20;6.00;;;5.32;;
18162;SDS011;9206;50.994;4.538;2023-05-07T09:52:08;5.93;;;5.38;;
18162;SDS011;9206;50.994;4.538;2023-05-07T09:54:56;8.93;;;6.05;;
18162;SDS011;9206;50.994;4.538;2023-05-07T09:57:51;5.95;;;5.40;;
18162;SDS011;9206;50.994;4.538;2023-05-07T10:00:43;8.73;;;5.70;;
18162;SDS011;9206;50.994;4.538;2023-05-07T10:03:33;5.80;;;5.20;;
18162;SDS011;9206;50.994;4.538;2023-05-07T10:09:17;5.72;;;5.15;;
18162;SDS011;9206;50.994;4.538;2023-05-07T10:12:06;6.15;;;5.55;;
18162;SDS011;9206;50.994;4.538;2023-05-07T10:14:55;9.75;;;5.68;;
18162;SDS011;9206;50.994;4.538;2023-05-07T10:17:43;5.07;;;4.57;;
18162;SDS011;9206;50.994;4.538;2023-05-07T10:20:11;5.72;;;4.80;;
18162;SDS011;9206;50.994;4.538;2023-05-07T10:22:41;7.10;;;4.88;;
18162;SDS011;9206;50.994;4.538;2023-05-07T10:25:23;4.93;;;4.25;;
18162;SDS011;9206;50.994;4.538;2023-05-07T10:28:08;5.35;;;3.97;;
18162;SDS011;9206;50.994;4.538;2023-05-07T10:30:40;5.13;;;4.47;;
18162;SDS011;9206;50.994;4.538;2023-05-07T10:33:22;4.95;;;3.97;;
18162;SDS011;9206;50.994;4.538;2023-05-07T10:35:55;4.03;;;3.60;;
18162;SDS011;9206;50.994;4.538;2023-05-07T10:38:28;5.43;;;4.07;;
18162;SDS011;9206;50.994;4.538;2023-05-07T10:44:07;3.90;;;3.50;;
18162;SDS011;9206;50.994;4.538;2023-05-07T10:47:06;5.97;;;4.32;;
18162;SDS011;9206;50.994;4.538;2023-05-07T10:53:21;5.45;;;4.60;;
18162;SDS011;9206;50.994;4.538;2023-05-07T10:56:35;6.38;;;4.13;;
18162;SDS011;9206;50.994;4.538;2023-05-07T10:59:35;10.45;;;4.55;;
18162;SDS011;9206;50.994;4.538;2023-05-07T11:05:39;2.97;;;2.70;;
18162;SDS011;9206;50.994;4.538;2023-05-07T11:11:45;5.63;;;3.17;;
18162;SDS011;9206;50.994;4.538;2023-05-07T11:14:42;5.63;;;2.70;;
18162;SDS011;9206;50.994;4.538;2023-05-07T11:17:35;3.90;;;2.90;;
18162;SDS011;9206;50.994;4.538;2023-05-07T11:20:50;3.08;;;2.72;;
18162;SDS011;9206;50.994;4.538;2023-05-07T11:23:59;3.25;;;2.90;;
18162;SDS011;9206;50.994;4.538;2023-05-07T11:26:51;4.55;;;3.22;;
18162;SDS011;9206;50.994;4.538;2023-05-07T11:29:47;7.07;;;2.95;;
18162;SDS011;9206;50.994;4.538;2023-05-07T11:32:40;5.22;;;2.60;;
18162;SDS011;9206;50.994;4.538;2023-05-07T11:35:36;2.90;;;2.17;;
18162;SDS011;9206;50.994;4.538;2023-05-07T11:38:34;2.80;;;2.38;;
18162;SDS011;9206;50.994;4.538;2023-05-07T11:41:33;2.75;;;2.42;;
18162;SDS011;9206;50.994;4.538;2023-05-07T11:44:24;4.07;;;2.85;;
18162;SDS011;9206;50.994;4.538;2023-05-07T11:47:19;5.28;;;2.47;;
18162;SDS011;9206;50.994;4.538;2023-05-07T11:50:10;4.60;;;2.35;;
18162;SDS011;9206;50.994;4.538;2023-05-07T11:52:58;4.57;;;2.50;;
18162;SDS011;9206;50.994;4.538;2023-05-07T11:55:45;2.90;;;2.47;;
18162;SDS011;9206;50.994;4.538;2023-05-07T11:58:41;5.15;;;2.47;;
18162;SDS011;9206;50.994;4.538;2023-05-07T12:01:34;3.42;;;2.30;;
18162;SDS011;9206;50.994;4.538;2023-05-07T12:04:28;4.90;;;2.42;;
18162;SDS011;9206;50.994;4.538;2023-05-07T12:07:17;3.20;;;2.20;;
18162;SDS011;9206;50.994;4.538;2023-05-07T12:10:09;3.20;;;2.50;;
18162;SDS011;9206;50.994;4.538;2023-05-07T12:12:59;2.63;;;2.17;;
18162;SDS011;9206;50.994;4.538;2023-05-07T12:16:00;2.92;;;2.63;;
18162;SDS011;9206;50.994;4.538;2023-05-07T12:19:01;6.68;;;3.00;;
18162;SDS011;9206;50.994;4.538;2023-05-07T12:22:00;3.80;;;2.42;;
18162;SDS011;9206;50.994;4.538;2023-05-07T12:24:49;2.97;;;2.53;;
18162;SDS011;9206;50.994;4.538;2023-05-07T12:27:45;4.53;;;2.33;;
18162;SDS011;9206;50.994;4.538;2023-05-07T12:30:48;3.05;;;2.75;;
18162;SDS011;9206;50.994;4.538;2023-05-07T12:33:37;3.00;;;2.72;;
18162;SDS011;9206;50.994;4.538;2023-05-07T12:36:37;4.80;;;2.20;;
18162;SDS011;9206;50.994;4.538;2023-05-07T12:39:25;3.83;;;2.42;;
18162;SDS011;9206;50.994;4.538;2023-05-07T12:42:19;2.30;;;2.10;;
18162;SDS011;9206;50.994;4.538;2023-05-07T12:45:11;2.65;;;2.20;;
18162;SDS011;9206;50.994;4.538;2023-05-07T12:48:11;2.63;;;2.42;;
18162;SDS011;9206;50.994;4.538;2023-05-07T12:51:04;3.08;;;2.03;;
18162;SDS011;9206;50.994;4.538;2023-05-07T12:53:57;1.92;;;1.83;;
18162;SDS011;9206;50.994;4.538;2023-05-07T12:59:50;2.47;;;2.28;;
18162;SDS011;9206;50.994;4.538;2023-05-07T13:04:47;3.63;;;2.50;;
18162;SDS011;9206;50.994;4.538;2023-05-07T13:09:47;2.33;;;1.88;;
18162;SDS011;9206;50.994;4.538;2023-05-07T13:12:16;2.03;;;1.92;;
18162;SDS011;9206;50.994;4.538;2023-05-07T13:14:49;3.03;;;2.15;;
18162;SDS011;9206;50.994;4.538;2023-05-07T13:17:17;2.28;;;1.90;;
18162;SDS011;9206;50.994;4.538;2023-05-07T13:19:47;2.70;;;2.10;;
18162;SDS011;9206;50.994;4.538;2023-05-07T13:22:15;2.30;;;1.90;;
18162;SDS011;9206;50.994;4.538;2023-05-07T13:24:49;4.43;;;1.98;;
18162;SDS011;9206;50.994;4.538;2023-05-07T13:27:16;2.67;;;2.20;;
18162;SDS011;9206;50.994;4.538;2023-05-07T13:32:26;2.10;;;1.90;;
18162;SDS011;9206;50.994;4.538;2023-05-07T13:35:03;3.65;;;2.00;;
18162;SDS011;9206;50.994;4.538;2023-05-07T13:37:37;2.92;;;1.98;;
18162;SDS011;9206;50.994;4.538;2023-05-07T13:40:14;2.78;;;1.70;;
18162;SDS011;9206;50.994;4.538;2023-05-07T13:42:43;2.28;;;2.03;;
18162;SDS011;9206;50.994;4.538;2023-05-07T13:45:33;4.70;;;2.22;;
18162;SDS011;9206;50.994;4.538;2023-05-07T13:48:20;3.22;;;2.50;;
18162;SDS011;9206;50.994;4.538;2023-05-07T13:53:58;2.28;;;2.10;;
18162;SDS011;9206;50.994;4.538;2023-05-07T13:56:54;2.70;;;2.30;;
18162;SDS011;9206;50.994;4.538;2023-05-07T13:59:42;3.28;;;2.10;;
18162;SDS011;9206;50.994;4.538;2023-05-07T14:02:31;3.67;;;2.35;;
18162;SDS011;9206;50.994;4.538;2023-05-07T14:05:21;3.90;;;2.88;;
18162;SDS011;9206;50.994;4.538;2023-05-07T14:08:10;4.10;;;2.88;;
18162;SDS011;9206;50.994;4.538;2023-05-07T14:11:01;6.18;;;2.72;;
18162;SDS011;9206;50.994;4.538;2023-05-07T14:13:52;3.30;;;2.30;;
18162;SDS011;9206;50.994;4.538;2023-05-07T14:16:40;2.72;;;2.53;;
18162;SDS011;9206;50.994;4.538;2023-05-07T14:22:21;3.03;;;2.72;;
18162;SDS011;9206;50.994;4.538;2023-05-07T14:25:09;6.35;;;3.30;;
18162;SDS011;9206;50.994;4.538;2023-05-07T14:27:56;4.18;;;2.80;;
18162;SDS011;9206;50.994;4.538;2023-05-07T14:30:46;3.78;;;2.55;;
18162;SDS011;9206;50.994;4.538;2023-05-07T14:33:33;4.40;;;2.80;;
18162;SDS011;9206;50.994;4.538;2023-05-07T14:36:24;3.38;;;3.08;;
18162;SDS011;9206;50.994;4.538;2023-05-07T14:39:14;3.53;;;2.10;;
18162;SDS011;9206;50.994;4.538;2023-05-07T14:42:03;2.22;;;2.00;;
18162;SDS011;9206;50.994;4.538;2023-05-07T14:44:54;2.40;;;2.30;;
18162;SDS011;9206;50.994;4.538;2023-05-07T14:47:49;1.95;;;1.85;;
18162;SDS011;9206;50.994;4.538;2023-05-07T14:50:38;2.20;;;2.00;;
18162;SDS011;9206;50.994;4.538;2023-05-07T14:53:25;2.03;;;1.92;;
18162;SDS011;9206;50.994;4.538;2023-05-07T14:56:13;2.83;;;2.17;;
18162;SDS011;9206;50.994;4.538;2023-05-07T14:59:06;3.70;;;2.22;;
18162;SDS011;9206;50.994;4.538;2023-05-07T15:02:00;1.98;;;1.88;;
18162;SDS011;9206;50.994;4.538;2023-05-07T15:04:49;1.92;;;1.83;;
18162;SDS011;9206;50.994;4.538;2023-05-07T15:07:42;2.63;;;2.42;;
18162;SDS011;9206;50.994;4.538;2023-05-07T15:10:36;2.80;;;2.20;;
18162;SDS011;9206;50.994;4.538;2023-05-07T15:13:29;2.38;;;2.17;;
18162;SDS011;9206;50.994;4.538;2023-05-07T15:16:27;2.63;;;2.42;;
18162;SDS011;9206;50.994;4.538;2023-05-07T15:19:15;4.65;;;2.28;;
18162;SDS011;9206;50.994;4.538;2023-05-07T15:22:05;2.30;;;2.10;;
18162;SDS011;9206;50.994;4.538;2023-05-07T15:24:52;2.47;;;2.28;;
18162;SDS011;9206;50.994;4.538;2023-05-07T15:27:40;2.13;;;2.03;;
18162;SDS011;9206;50.994;4.538;2023-05-07T15:30:31;2.80;;;2.50;;
18162;SDS011;9206;50.994;4.538;2023-05-07T15:33:22;2.53;;;2.33;;
18162;SDS011;9206;50.994;4.538;2023-05-07T15:36:10;3.00;;;2.80;;
18162;SDS011;9206;50.994;4.538;2023-05-07T15:39:02;2.60;;;2.50;;
18162;SDS011;9206;50.994;4.538;2023-05-07T15:44:53;3.45;;;3.25;;
18162;SDS011;9206;50.994;4.538;2023-05-07T15:47:41;3.05;;;2.88;;
18162;SDS011;9206;50.994;4.538;2023-05-07T15:50:30;3.00;;;2.72;;
18162;SDS011;9206;50.994;4.538;2023-05-07T15:53:20;2.97;;;2.78;;
18162;SDS011;9206;50.994;4.538;2023-05-07T15:59:01;3.10;;;2.90;;
18162;SDS011;9206;50.994;4.538;2023-05-07T16:01:51;3.38;;;2.90;;
18162;SDS011;9206;50.994;4.538;2023-05-07T16:04:44;3.50;;;2.75;;
18162;SDS011;9206;50.994;4.538;2023-05-07T16:07:32;3.20;;;2.80;;
18162;SDS011;9206;50.994;4.538;2023-05-07T16:10:20;3.47;;;3.28;;
18162;SDS011;9206;50.994;4.538;2023-05-07T16:16:22;9.30;;;3.45;;
18162;SDS011;9206;50.994;4.538;2023-05-07T16:19:14;3.05;;;2.70;;
18162;SDS011;9206;50.994;4.538;2023-05-07T16:22:01;5.68;;;5.38;;
18162;SDS011;9206;50.994;4.538;2023-05-07T16:24:49;5.15;;;4.68;;
18162;SDS011;9206;50.994;4.538;2023-05-07T16:27:36;3.55;;;3.35;;
18162;SDS011;9206;50.994;4.538;2023-05-07T16:30:27;4.10;;;3.28;;
18162;SDS011;9206;50.994;4.538;2023-05-07T16:33:14;3.40;;;3.15;;
18162;SDS011;9206;50.994;4.538;2023-05-07T16:36:02;3.30;;;2.95;;
18162;SDS011;9206;50.994;4.538;2023-05-07T16:38:51;3.42;;;3.13;;
18162;SDS011;9206;50.994;4.538;2023-05-07T16:41:38;3.05;;;2.85;;
18162;SDS011;9206;50.994;4.538;2023-05-07T16:44:26;3.47;;;3.17;;
18162;SDS011;9206;50.994;4.538;2023-05-07T16:47:21;3.28;;;3.08;;
18162;SDS011;9206;50.994;4.538;2023-05-07T16:50:08;3.60;;;3.40;;
18162;SDS011;9206;50.994;4.538;2023-05-07T16:53:01;3.20;;;3.00;;
18162;SDS011;9206;50.994;4.538;2023-05-07T16:55:53;3.38;;;3.17;;
18162;SDS011;9206;50.994;4.538;2023-05-07T16:58:40;4.45;;;3.55;;
18162;SDS011;9206;50.994;4.538;2023-05-07T17:01:33;3.13;;;2.92;;
18162;SDS011;9206;50.994;4.538;2023-05-07T17:04:22;3.90;;;3.58;;
18162;SDS011;9206;50.994;4.538;2023-05-07T17:07:24;3.17;;;3.08;;
18162;SDS011;9206;50.994;4.538;2023-05-07T17:10:24;3.72;;;3.33;;
18162;SDS011;9206;50.994;4.538;2023-05-07T17:13:27;4.10;;;3.90;;
18162;SDS011;9206;50.994;4.538;2023-05-07T17:16:21;4.35;;;3.95;;
18162;SDS011;9206;50.994;4.538;2023-05-07T17:22:08;5.18;;;4.40;;
18162;SDS011;9206;50.994;4.538;2023-05-07T17:25:06;6.28;;;4.00;;
18162;SDS011;9206;50.994;4.538;2023-05-07T17:27:55;3.70;;;3.40;;
18162;SDS011;9206;50.994;4.538;2023-05-07T17:30:51;3.67;;;3.30;;
18162;SDS011;9206;50.994;4.538;2023-05-07T17:33:52;3.95;;;3.67;;
18162;SDS011;9206;50.994;4.538;2023-05-07T17:36:42;4.05;;;3.72;;
18162;SDS011;9206;50.994;4.538;2023-05-07T17:42:23;6.55;;;5.95;;
18162;SDS011;9206;50.994;4.538;2023-05-07T17:45:16;7.38;;;6.28;;
18162;SDS011;9206;50.994;4.538;2023-05-07T17:48:09;5.45;;;5.00;;
18162;SDS011;9206;50.994;4.538;2023-05-07T17:50:59;4.78;;;4.40;;
18162;SDS011;9206;50.994;4.538;2023-05-07T17:53:49;6.60;;;4.45;;
18162;SDS011;9206;50.994;4.538;2023-05-07T17:56:41;5.72;;;5.43;;
18162;SDS011;9206;50.994;4.538;2023-05-07T17:59:29;6.70;;;6.25;;
18162;SDS011;9206;50.994;4.538;2023-05-07T18:02:22;6.45;;;6.13;;
18162;SDS011;9206;50.994;4.538;2023-05-07T18:05:27;9.43;;;8.52;;
18162;SDS011;9206;50.994;4.538;2023-05-07T18:08:15;8.07;;;7.32;;
18162;SDS011;9206;50.994;4.538;2023-05-07T18:11:04;7.95;;;7.45;;
18162;SDS011;9206;50.994;4.538;2023-05-07T18:16:51;8.70;;;7.95;;
18162;SDS011;9206;50.994;4.538;2023-05-07T18:19:42;7.93;;;7.32;;
18162;SDS011;9206;50.994;4.538;2023-05-07T18:22:30;8.40;;;7.28;;
18162;SDS011;9206;50.994;4.538;2023-05-07T18:25:18;9.00;;;8.20;;
18162;SDS011;9206;50.994;4.538;2023-05-07T18:28:05;7.65;;;7.15;;
18162;SDS011;9206;50.994;4.538;2023-05-07T18:30:54;8.05;;;7.38;;
18162;SDS011;9206;50.994;4.538;2023-05-07T18:33:50;7.78;;;7.18;;
18162;SDS011;9206;50.994;4.538;2023-05-07T18:36:41;8.30;;;7.72;;
18162;SDS011;9206;50.994;4.538;2023-05-07T18:39:34;8.32;;;7.57;;
18162;SDS011;9206;50.994;4.538;2023-05-07T18:42:22;8.65;;;7.88;;
18162;SDS011;9206;50.994;4.538;2023-05-07T18:45:09;8.18;;;7.68;;
18162;SDS011;9206;50.994;4.538;2023-05-07T18:47:59;8.80;;;8.10;;
18162;SDS011;9206;50.994;4.538;2023-05-07T18:50:46;8.07;;;7.60;;
18162;SDS011;9206;50.994;4.538;2023-05-07T18:53:40;7.93;;;7.32;;
18162;SDS011;9206;50.994;4.538;2023-05-07T18:56:31;7.85;;;7.35;;
18162;SDS011;9206;50.994;4.538;2023-05-07T18:59:20;7.03;;;6.63;;
18162;SDS011;9206;50.994;4.538;2023-05-07T19:02:09;7.22;;;6.70;;
18162;SDS011;9206;50.994;4.538;2023-05-07T19:04:59;8.25;;;7.45;;
18162;SDS011;9206;50.994;4.538;2023-05-07T19:07:48;7.88;;;7.20;;
18162;SDS011;9206;50.994;4.538;2023-05-07T19:10:47;7.63;;;7.22;;
18162;SDS011;9206;50.994;4.538;2023-05-07T19:13:34;8.07;;;7.40;;
18162;SDS011;9206;50.994;4.538;2023-05-07T19:16:22;7.35;;;6.95;;
18162;SDS011;9206;50.994;4.538;2023-05-07T19:19:09;9.00;;;8.10;;
18162;SDS011;9206;50.994;4.538;2023-05-07T19:22:01;12.82;;;7.95;;
18162;SDS011;9206;50.994;4.538;2023-05-07T19:24:49;8.00;;;7.47;;
18162;SDS011;9206;50.994;4.538;2023-05-07T19:27:39;17.75;;;14.75;;
18162;SDS011;9206;50.994;4.538;2023-05-07T19:30:27;26.27;;;20.13;;
18162;SDS011;9206;50.994;4.538;2023-05-07T19:33:24;9.77;;;8.93;;
18162;SDS011;9206;50.994;4.538;2023-05-07T19:36:15;7.60;;;6.90;;
18162;SDS011;9206;50.994;4.538;2023-05-07T19:39:04;5.53;;;5.22;;
18162;SDS011;9206;50.994;4.538;2023-05-07T19:41:52;4.65;;;4.35;;
18162;SDS011;9206;50.994;4.538;2023-05-07T19:47:34;3.80;;;3.50;;
18162;SDS011;9206;50.994;4.538;2023-05-07T19:50:25;5.05;;;3.88;;
18162;SDS011;9206;50.994;4.538;2023-05-07T19:53:12;3.83;;;3.45;;
18162;SDS011;9206;50.994;4.538;2023-05-07T19:56:09;6.60;;;6.00;;
18162;SDS011;9206;50.994;4.538;2023-05-07T19:58:59;19.60;;;13.50;;
18162;SDS011;9206;50.994;4.538;2023-05-07T20:01:49;12.43;;;10.25;;
18162;SDS011;9206;50.994;4.538;2023-05-07T20:04:42;10.98;;;9.27;;
18162;SDS011;9206;50.994;4.538;2023-05-07T20:07:36;11.50;;;10.23;;
18162;SDS011;9206;50.994;4.538;2023-05-07T20:10:34;40.70;;;23.65;;
18162;SDS011;9206;50.994;4.538;2023-05-07T20:13:27;29.92;;;18.83;;
18162;SDS011;9206;50.994;4.538;2023-05-07T20:16:19;7.80;;;7.13;;
18162;SDS011;9206;50.994;4.538;2023-05-07T20:25:20;8.38;;;7.47;;
18162;SDS011;9206;50.994;4.538;2023-05-07T20:28:19;8.48;;;7.68;;
18162;SDS011;9206;50.994;4.538;2023-05-07T20:31:09;7.60;;;6.82;;
18162;SDS011;9206;50.994;4.538;2023-05-07T20:34:19;8.23;;;7.20;;
18162;SDS011;9206;50.994;4.538;2023-05-07T20:37:10;7.75;;;7.25;;
18162;SDS011;9206;50.994;4.538;2023-05-07T20:40:01;7.65;;;7.07;;
18162;SDS011;9206;50.994;4.538;2023-05-07T20:43:01;8.98;;;7.45;;
18162;SDS011;9206;50.994;4.538;2023-05-07T20:46:05;8.25;;;7.65;;
18162;SDS011;9206;50.994;4.538;2023-05-07T20:48:55;9.30;;;8.50;;
18162;SDS011;9206;50.994;4.538;2023-05-07T20:51:46;11.98;;;8.85;;
18162;SDS011;9206;50.994;4.538;2023-05-07T20:54:36;9.48;;;8.57;;
18162;SDS011;9206;50.994;4.538;2023-05-07T20:57:33;9.60;;;8.25;;
18162;SDS011;9206;50.994;4.538;2023-05-07T21:00:36;8.60;;;8.00;;
18162;SDS011;9206;50.994;4.538;2023-05-07T21:03:29;8.32;;;7.70;;
18162;SDS011;9206;50.994;4.538;2023-05-07T21:06:18;9.30;;;8.57;;
18162;SDS011;9206;50.994;4.538;2023-05-07T21:09:10;10.48;;;9.57;;
18162;SDS011;9206;50.994;4.538;2023-05-07T21:11:58;10.45;;;9.55;;
18162;SDS011;9206;50.994;4.538;2023-05-07T21:14:49;12.25;;;11.00;;
18162;SDS011;9206;50.994;4.538;2023-05-07T21:17:43;12.70;;;11.07;;
18162;SDS011;9206;50.994;4.538;2023-05-07T21:23:57;13.27;;;12.18;;
18162;SDS011;9206;50.994;4.538;2023-05-07T21:26:53;16.30;;;13.60;;
18162;SDS011;9206;50.994;4.538;2023-05-07T21:29:47;15.25;;;13.63;;
18162;SDS011;9206;50.994;4.538;2023-05-07T21:35:25;16.00;;;13.65;;
18162;SDS011;9206;50.994;4.538;2023-05-07T21:38:41;15.63;;;14.23;;
18162;SDS011;9206;50.994;4.538;2023-05-07T21:41:30;18.45;;;14.55;;
18162;SDS011;9206;50.994;4.538;2023-05-07T21:44:21;17.48;;;14.60;;
18162;SDS011;9206;50.994;4.538;2023-05-07T21:47:15;18.63;;;15.10;;
18162;SDS011;9206;50.994;4.538;2023-05-07T21:50:05;15.90;;;14.20;;
18162;SDS011;9206;50.994;4.538;2023-05-07T21:52:55;20.48;;;16.98;;
18162;SDS011;9206;50.994;4.538;2023-05-07T21:55:48;18.50;;;16.60;;
18162;SDS011;9206;50.994;4.538;2023-05-07T21:58:50;19.58;;;16.20;;
18162;SDS011;9206;50.994;4.538;2023-05-07T22:01:41;20.98;;;17.05;;
18162;SDS011;9206;50.994;4.538;2023-05-07T22:04:28;19.95;;;16.80;;
18162;SDS011;9206;50.994;4.538;2023-05-07T22:07:21;25.70;;;18.23;;
18162;SDS011;9206;50.994;4.538;2023-05-07T22:13:03;25.20;;;19.33;;
18162;SDS011;9206;50.994;4.538;2023-05-07T22:15:54;23.65;;;20.15;;
18162;SDS011;9206;50.994;4.538;2023-05-07T22:21:39;25.40;;;20.25;;
18162;SDS011;9206;50.994;4.538;2023-05-07T22:24:28;26.35;;;20.67;;
18162;SDS011;9206;50.994;4.538;2023-05-07T22:27:22;22.95;;;20.08;;
18162;SDS011;9206;50.994;4.538;2023-05-07T22:33:06;26.40;;;19.42;;
18162;SDS011;9206;50.994;4.538;2023-05-07T22:35:54;21.40;;;19.13;;
18162;SDS011;9206;50.994;4.538;2023-05-07T22:38:42;26.65;;;21.30;;
18162;SDS011;9206;50.994;4.538;2023-05-07T22:41:33;24.65;;;20.65;;
18162;SDS011;9206;50.994;4.538;2023-05-07T22:47:13;31.13;;;23.30;;
18162;SDS011;9206;50.994;4.538;2023-05-07T22:50:04;27.92;;;21.80;;
18162;SDS011;9206;50.994;4.538;2023-05-07T22:52:52;30.20;;;23.90;;
18162;SDS011;9206;50.994;4.538;2023-05-07T22:55:42;31.23;;;22.75;;
18162;SDS011;9206;50.994;4.538;2023-05-07T22:58:35;30.85;;;23.55;;
18162;SDS011;9206;50.994;4.538;2023-05-07T23:01:30;27.52;;;22.20;;
18162;SDS011;9206;50.994;4.538;2023-05-07T23:04:18;28.88;;;23.55;;
18162;SDS011;9206;50.994;4.538;2023-05-07T23:07:12;33.30;;;24.55;;
18162;SDS011;9206;50.994;4.538;2023-05-07T23:10:06;35.22;;;25.33;;
18162;SDS011;9206;50.994;4.538;2023-05-07T23:12:57;42.13;;;27.50;;
18162;SDS011;9206;50.994;4.538;2023-05-07T23:15:51;34.58;;;24.55;;
18162;SDS011;9206;50.994;4.538;2023-05-07T23:18:41;38.93;;;26.90;;
18162;SDS011;9206;50.994;4.538;2023-05-07T23:21:29;40.20;;;28.00;;
18162;SDS011;9206;50.994;4.538;2023-05-07T23:24:23;37.77;;;26.30;;
18162;SDS011;9206;50.994;4.538;2023-05-07T23:27:13;35.38;;;26.25;;
18162;SDS011;9206;50.994;4.538;2023-05-07T23:30:08;34.83;;;25.57;;
18162;SDS011;9206;50.994;4.538;2023-05-07T23:33:02;33.43;;;26.23;;
18162;SDS011;9206;50.994;4.538;2023-05-07T23:36:05;38.93;;;27.93;;
18162;SDS011;9206;50.994;4.538;2023-05-07T23:38:53;41.70;;;28.47;;
18162;SDS011;9206;50.994;4.538;2023-05-07T23:41:42;42.40;;;29.30;;
18162;SDS011;9206;50.994;4.538;2023-05-07T23:44:33;39.00;;;27.23;;
18162;SDS011;9206;50.994;4.538;2023-05-07T23:47:26;42.37;;;28.87;;
18162;SDS011;9206;50.994;4.538;2023-05-07T23:50:20;45.17;;;29.37;;
18162;SDS011;9206;50.994;4.538;2023-05-07T23:53:14;40.70;;;27.00;;
18162;SDS011;9206;50.994;4.538;2023-05-07T23:58:59;34.87;;;27.77;;
